createdAt,value
2019-02-22T00:01:36.882Z,91.20
2019-02-22T00:04:04.528Z,91.00
2019-02-22T00:06:31.908Z,91.00
2019-02-22T00:08:59.516Z,91.40
2019-02-22T00:11:27.199Z,91.00
2019-02-22T00:13:54.736Z,91.00
2019-02-22T00:16:23.652Z,90.90
2019-02-22T00:18:51.342Z,90.90
2019-02-22T00:21:19.010Z,91.00
2019-02-22T00:23:46.633Z,91.20
2019-02-22T00:26:14.242Z,91.50
2019-02-22T00:28:41.922Z,91.60
2019-02-22T00:31:09.527Z,91.40
2019-02-22T00:33:37.010Z,91.60
2019-02-22T00:36:04.683Z,91.30
2019-02-22T00:38:32.292Z,91.20
2019-02-22T00:40:59.928Z,91.00
2019-02-22T00:43:27.551Z,90.90
2019-02-22T00:45:55.080Z,90.70
2019-02-22T00:48:22.865Z,90.50
2019-02-22T00:50:50.523Z,90.80
2019-02-22T00:53:20.137Z,90.30
2019-02-22T00:55:47.614Z,90.20
2019-02-22T00:58:16.191Z,90.10
2019-02-22T01:00:43.798Z,90.10
2019-02-22T01:03:11.402Z,90.10
2019-02-22T01:05:39.091Z,90.00
2019-02-22T01:08:06.629Z,90.00
2019-02-22T01:10:34.279Z,90.00
2019-02-22T01:13:01.865Z,89.80
2019-02-22T01:15:31.247Z,90.00
2019-02-22T01:17:58.885Z,90.00
2019-02-22T01:20:26.511Z,90.10
2019-02-22T01:22:55.962Z,90.20
2019-02-22T01:25:23.581Z,90.30
2019-02-22T01:27:51.213Z,90.30
2019-02-22T01:30:21.152Z,90.40
2019-02-22T01:32:48.747Z,90.40
2019-02-22T01:35:16.365Z,90.40
2019-02-22T01:37:45.769Z,90.50
2019-02-22T01:40:13.377Z,90.30
2019-02-22T01:42:42.215Z,90.30
2019-02-22T01:45:09.916Z,90.30
2019-02-22T01:47:39.106Z,90.20
2019-02-22T01:50:06.641Z,90.30
2019-02-22T01:52:34.275Z,90.30
2019-02-22T01:55:01.857Z,90.30
2019-02-22T01:57:29.363Z,90.30
2019-02-22T01:59:56.951Z,90.10
2019-02-22T02:02:24.413Z,90.00
2019-02-22T02:04:51.984Z,89.90
2019-02-22T02:07:19.512Z,89.60
2019-02-22T02:09:47.091Z,89.70
2019-02-22T02:12:14.596Z,89.80
2019-02-22T02:14:42.256Z,90.00
2019-02-22T02:17:10.952Z,90.10
2019-02-22T02:19:38.684Z,90.00
2019-02-22T02:22:06.296Z,90.00
2019-02-22T02:24:35.650Z,90.00
2019-02-22T02:27:04.977Z,90.00
2019-02-22T02:29:32.492Z,89.80
2019-02-22T02:32:01.975Z,90.00
2019-02-22T02:34:29.507Z,90.10
2019-02-22T02:36:57.141Z,90.10
2019-02-22T02:39:24.694Z,90.00
2019-02-22T02:41:53.981Z,90.00
2019-02-22T02:44:21.581Z,90.00
2019-02-22T02:46:49.222Z,90.00
2019-02-22T02:49:18.394Z,90.00
2019-02-22T02:54:13.220Z,89.80
2019-02-22T02:56:42.491Z,89.40
2019-02-22T02:59:10.109Z,89.20
2019-02-22T03:01:37.643Z,88.90
2019-02-22T03:04:05.212Z,88.50
2019-02-22T03:06:44.186Z,88.20
2019-02-22T03:09:11.811Z,88.20
2019-02-22T03:11:39.589Z,88.10
2019-02-22T03:14:07.137Z,88.20
2019-02-22T03:16:34.750Z,88.50
2019-02-22T03:19:02.401Z,88.40
2019-02-22T03:21:30.015Z,88.40
2019-02-22T03:23:57.597Z,88.40
2019-02-22T03:26:25.232Z,88.30
2019-02-22T03:28:52.796Z,88.50
2019-02-22T03:31:20.495Z,88.70
2019-02-22T03:33:49.772Z,88.90
2019-02-22T03:36:17.356Z,89.20
2019-02-22T03:38:44.825Z,89.40
2019-02-22T03:41:12.452Z,89.50
2019-02-22T03:43:40.055Z,89.50
2019-02-22T03:46:07.798Z,90.10
2019-02-22T03:48:35.601Z,89.80
2019-02-22T03:51:03.218Z,89.80
2019-02-22T03:53:38.290Z,89.90
2019-02-22T03:56:06.934Z,89.90
2019-02-22T03:58:34.699Z,89.80
2019-02-22T04:01:02.443Z,89.60
2019-02-22T04:03:30.403Z,89.20
2019-02-22T04:05:58.020Z,88.80
2019-02-22T04:08:25.667Z,88.60
2019-02-22T04:10:53.331Z,88.40
2019-02-22T04:13:20.964Z,88.30
2019-02-22T04:15:49.455Z,88.20
2019-02-22T04:18:17.078Z,88.00
2019-02-22T04:20:44.682Z,87.60
2019-02-22T04:23:12.325Z,87.50
2019-02-22T04:25:39.913Z,87.30
2019-02-22T04:28:07.514Z,87.20
2019-02-22T04:30:37.741Z,87.10
2019-02-22T04:33:04.399Z,86.80
2019-02-22T04:35:32.047Z,87.40
2019-02-22T04:37:59.745Z,86.20
2019-02-22T04:40:27.349Z,86.10
2019-02-22T04:42:54.903Z,86.00
2019-02-22T04:45:22.655Z,85.80
2019-02-22T04:47:50.289Z,86.30
2019-02-22T04:50:19.062Z,85.40
2019-02-22T04:52:46.748Z,85.20
2019-02-22T04:55:17.389Z,85.30
2019-02-22T04:57:44.977Z,85.10
2019-02-22T05:00:12.593Z,84.90
2019-02-22T05:02:40.165Z,84.60
2019-02-22T05:05:08.870Z,84.70
2019-02-22T05:07:36.442Z,84.50
2019-02-22T05:12:32.637Z,84.40
2019-02-22T05:15:11.883Z,84.40
2019-02-22T05:17:29.598Z,84.30
2019-02-22T05:19:57.210Z,84.60
2019-02-22T05:22:24.865Z,84.60
2019-02-22T05:24:54.214Z,84.80
2019-02-22T05:27:21.988Z,84.60
2019-02-22T05:29:51.427Z,84.30
2019-02-22T05:32:19.060Z,84.30
2019-02-22T05:34:47.812Z,84.30
2019-02-22T05:37:15.849Z,84.40
2019-02-22T05:39:43.354Z,84.30
2019-02-22T05:42:22.516Z,84.20
2019-02-22T05:45:01.655Z,84.00
2019-02-22T05:47:29.315Z,83.90
2019-02-22T05:49:56.912Z,83.80
2019-02-22T05:52:24.512Z,83.60
2019-02-22T05:54:53.823Z,83.60
2019-02-22T05:57:23.245Z,83.70
2019-02-22T05:59:50.875Z,83.60
2019-02-22T06:02:18.495Z,83.30
2019-02-22T06:04:46.144Z,83.20
2019-02-22T06:07:14.673Z,83.20
2019-02-22T06:09:42.350Z,83.20
2019-02-22T06:12:09.998Z,83.20
2019-02-22T06:14:39.405Z,83.30
2019-02-22T06:17:14.666Z,83.30
2019-02-22T06:19:36.386Z,83.30
2019-02-22T06:22:05.822Z,83.40
2019-02-22T06:24:33.842Z,83.10
2019-02-22T06:27:01.858Z,83.00
2019-02-22T06:29:30.573Z,83.20
2019-02-22T06:31:59.954Z,83.30
2019-02-22T06:34:27.608Z,83.30
2019-02-22T06:37:01.774Z,83.30
2019-02-22T06:39:24.746Z,83.10
2019-02-22T06:41:52.367Z,83.30
2019-02-22T06:44:21.832Z,83.40
2019-02-22T06:46:51.224Z,83.30
2019-02-22T06:49:18.881Z,83.30
2019-02-22T06:51:46.481Z,83.40
2019-02-22T06:54:14.196Z,83.30
2019-02-22T06:56:41.868Z,83.10
2019-02-22T06:59:09.466Z,83.20
2019-02-22T07:01:37.508Z,83.20
2019-02-22T07:04:06.254Z,83.10
2019-02-22T07:06:33.836Z,83.20
2019-02-22T07:09:01.314Z,83.10
2019-02-22T07:12:05.710Z,83.40
2019-02-22T07:14:33.454Z,83.70
2019-02-22T07:17:01.096Z,83.90
2019-02-22T07:19:28.721Z,84.20
2019-02-22T07:21:58.093Z,84.30
2019-02-22T07:24:25.749Z,84.00
2019-02-22T07:26:54.466Z,83.90
2019-02-22T07:29:22.316Z,83.10
2019-02-22T07:31:50.075Z,82.30
2019-02-22T07:34:17.690Z,81.80
2019-02-22T07:36:46.410Z,81.30
2019-02-22T07:39:14.058Z,81.20
2019-02-22T07:41:41.646Z,81.40
2019-02-22T07:44:09.297Z,81.30
2019-02-22T07:46:38.008Z,81.50
2019-02-22T07:49:06.726Z,81.90
2019-02-22T07:51:34.479Z,82.30
2019-02-22T07:54:02.244Z,82.50
2019-02-22T07:56:29.840Z,82.60
2019-02-22T07:59:03.015Z,82.40
2019-02-22T08:01:29.781Z,82.20
2019-02-22T08:03:57.323Z,81.70
2019-02-22T08:06:26.167Z,81.30
2019-02-22T08:08:55.609Z,81.00
2019-02-22T08:11:25.117Z,80.70
2019-02-22T08:13:52.805Z,80.50
2019-02-22T08:16:20.381Z,80.70
2019-02-22T08:18:48.000Z,80.50
2019-02-22T08:21:15.617Z,80.50
2019-02-22T08:23:44.218Z,81.10
2019-02-22T08:26:11.899Z,81.20
2019-02-22T08:28:40.633Z,81.30
2019-02-22T08:31:08.302Z,81.10
2019-02-22T08:33:35.875Z,81.40
2019-02-22T08:36:03.477Z,81.30
2019-02-22T08:38:31.115Z,81.40
2019-02-22T08:40:58.840Z,81.30
2019-02-22T08:43:31.432Z,81.20
2019-02-22T08:45:59.262Z,81.30
2019-02-22T08:48:28.701Z,81.80
2019-02-22T08:50:56.363Z,81.90
2019-02-22T08:53:23.998Z,82.00
2019-02-22T08:55:51.580Z,82.30
2019-02-22T08:58:19.444Z,82.30
2019-02-22T09:00:47.081Z,82.50
2019-02-22T09:03:14.595Z,82.50
2019-02-22T09:05:43.906Z,82.50
2019-02-22T09:08:12.884Z,82.60
2019-02-22T09:10:40.515Z,82.70
2019-02-22T09:13:08.090Z,82.70
2019-02-22T09:15:35.689Z,82.90
2019-02-22T09:18:03.437Z,82.90
2019-02-22T09:20:32.790Z,83.60
2019-02-22T09:23:00.386Z,83.80
2019-02-22T09:25:27.918Z,84.20
2019-02-22T09:27:55.506Z,84.60
2019-02-22T09:30:23.158Z,84.30
2019-02-22T09:32:50.892Z,84.20
2019-02-22T09:35:21.469Z,84.10
2019-02-22T09:37:49.090Z,84.00
2019-02-22T09:40:16.770Z,83.50
2019-02-22T09:42:44.389Z,84.10
2019-02-22T09:45:12.406Z,84.50
2019-02-22T09:47:40.128Z,84.70
2019-02-22T09:50:08.919Z,84.70
2019-02-22T09:52:36.825Z,85.00
2019-02-22T09:55:05.690Z,85.20
2019-02-22T09:57:33.770Z,85.10
2019-02-22T10:00:01.333Z,85.00
2019-02-22T10:02:30.528Z,84.90
2019-02-22T10:04:59.918Z,84.90
2019-02-22T10:07:28.813Z,84.80
2019-02-22T10:09:57.560Z,84.50
2019-02-22T10:12:27.111Z,84.70
2019-02-22T10:14:54.758Z,84.60
2019-02-22T10:17:22.383Z,84.50
2019-02-22T10:19:50.241Z,84.60
2019-02-22T10:22:17.854Z,84.80
2019-02-22T10:24:45.505Z,84.00
2019-02-22T10:27:14.220Z,83.30
2019-02-22T10:29:41.836Z,84.00
2019-02-22T10:32:09.432Z,83.80
2019-02-22T10:34:37.205Z,82.90
2019-02-22T10:37:04.790Z,82.40
2019-02-22T10:39:32.543Z,81.30
2019-02-22T10:42:00.140Z,81.00
2019-02-22T10:44:27.790Z,81.20
2019-02-22T10:46:56.534Z,80.70
2019-02-22T10:49:24.237Z,80.70
2019-02-22T10:51:51.940Z,79.60
2019-02-22T10:54:19.599Z,79.50
2019-02-22T10:56:47.124Z,79.70
2019-02-22T10:59:14.738Z,80.20
2019-02-22T11:01:42.389Z,80.50
2019-02-22T11:04:10.004Z,80.50
2019-02-22T11:06:37.643Z,80.00
2019-02-22T11:09:06.227Z,79.70
2019-02-22T11:11:34.785Z,79.60
2019-02-22T11:14:02.549Z,79.90
2019-02-22T11:16:30.039Z,80.30
2019-02-22T11:18:57.662Z,80.30
2019-02-22T11:21:25.149Z,80.00
2019-02-22T11:23:52.837Z,80.30
2019-02-22T11:26:20.489Z,80.30
2019-02-22T11:28:48.137Z,80.30
2019-02-22T11:31:17.570Z,80.40
2019-02-22T11:33:45.154Z,80.70
2019-02-22T11:36:12.763Z,80.00
2019-02-22T11:38:40.366Z,80.30
2019-02-22T11:41:07.991Z,80.20
2019-02-22T11:43:35.726Z,80.60
2019-02-22T11:46:03.485Z,80.90
2019-02-22T11:48:30.564Z,81.00
2019-02-22T11:50:58.267Z,81.00
2019-02-22T11:53:27.701Z,81.30
2019-02-22T11:55:55.378Z,82.10
2019-02-22T11:58:23.251Z,82.20
2019-02-22T12:00:50.889Z,82.40
2019-02-22T12:03:24.641Z,82.70
2019-02-22T12:05:48.119Z,82.50
2019-02-22T12:08:15.689Z,83.30
2019-02-22T12:10:43.453Z,83.00
2019-02-22T12:13:11.275Z,83.10
2019-02-22T12:15:38.948Z,82.30
2019-02-22T12:18:06.549Z,81.50
2019-02-22T12:20:34.325Z,81.00
2019-02-22T12:23:03.835Z,80.20
2019-02-22T12:25:31.509Z,79.70
2019-02-22T12:27:59.087Z,79.00
2019-02-22T12:30:26.755Z,78.70
2019-02-22T12:32:54.510Z,78.10
2019-02-22T12:35:22.350Z,77.50
2019-02-22T12:37:49.996Z,77.40
2019-02-22T12:40:17.781Z,77.20
2019-02-22T12:42:45.474Z,77.00
2019-02-22T12:45:15.340Z,76.80
2019-02-22T12:47:43.172Z,76.90
2019-02-22T12:50:12.275Z,78.30
2019-02-22T12:52:40.125Z,78.90
2019-02-22T12:55:07.995Z,79.50
2019-02-22T12:57:37.494Z,79.10
2019-02-22T13:00:07.188Z,79.60
2019-02-22T13:02:34.995Z,79.40
2019-02-22T13:05:04.257Z,79.50
2019-02-22T13:07:31.947Z,78.90
2019-02-22T13:09:59.557Z,78.30
2019-02-22T13:12:27.184Z,79.00
2019-02-22T13:14:55.040Z,78.40
2019-02-22T13:17:30.544Z,77.60
2019-02-22T13:19:53.457Z,77.70
2019-02-22T13:22:21.246Z,77.60
2019-02-22T13:24:50.768Z,77.90
2019-02-22T13:27:18.414Z,77.70
2019-02-22T13:29:48.233Z,77.60
2019-02-22T13:32:15.892Z,77.10
2019-02-22T13:34:43.634Z,76.30
2019-02-22T13:37:11.426Z,75.60
2019-02-22T13:39:39.084Z,75.60
2019-02-22T13:42:08.531Z,75.20
2019-02-22T13:44:36.199Z,74.90
2019-02-22T13:47:04.027Z,74.70
2019-02-22T13:49:31.548Z,74.40
2019-02-22T13:51:59.266Z,74.50
2019-02-22T13:54:26.834Z,74.70
2019-02-22T13:56:54.585Z,74.20
2019-02-22T13:59:22.301Z,74.10
2019-02-22T14:01:49.930Z,74.00
2019-02-22T14:04:17.698Z,74.20
2019-02-22T14:06:45.287Z,74.00
2019-02-22T14:09:12.989Z,73.90
2019-02-22T14:11:42.089Z,74.20
2019-02-22T14:14:10.872Z,74.30
2019-02-22T14:16:40.250Z,74.20
2019-02-22T14:19:07.851Z,73.90
2019-02-22T14:21:37.195Z,73.60
2019-02-22T14:24:04.954Z,73.30
2019-02-22T14:26:32.650Z,72.70
2019-02-22T14:29:01.460Z,72.60
2019-02-22T14:31:28.976Z,72.80
2019-02-22T14:33:56.538Z,72.90
2019-02-22T14:36:24.286Z,72.60
2019-02-22T14:38:51.824Z,72.70
2019-02-22T14:41:19.520Z,72.70
2019-02-22T14:43:48.349Z,72.30
2019-02-22T14:46:25.504Z,72.60
2019-02-22T14:48:45.665Z,72.60
2019-02-22T14:51:15.210Z,72.20
2019-02-22T14:53:42.975Z,72.20
2019-02-22T14:56:10.597Z,72.80
2019-02-22T14:58:38.278Z,73.00
2019-02-22T15:01:06.011Z,73.90
2019-02-22T15:03:34.903Z,74.80
2019-02-22T15:06:02.621Z,75.10
2019-02-22T15:08:30.279Z,75.60
2019-02-22T15:10:58.988Z,75.10
2019-02-22T15:13:26.629Z,75.10
2019-02-22T15:16:12.328Z,76.00
2019-02-22T15:18:40.157Z,76.20
2019-02-22T15:21:07.757Z,76.30
2019-02-22T15:23:38.669Z,76.20
2019-02-22T15:26:05.989Z,76.40
2019-02-22T15:28:33.594Z,76.60
2019-02-22T15:31:01.422Z,77.00
2019-02-22T15:33:29.127Z,76.90
2019-02-22T15:35:56.781Z,77.30
2019-02-22T15:38:25.534Z,77.80
2019-02-22T15:40:53.161Z,78.00
2019-02-22T15:43:21.895Z,78.00
2019-02-22T15:45:49.494Z,77.50
2019-02-22T15:48:17.313Z,77.60
2019-02-22T15:50:45.040Z,77.10
2019-02-22T15:53:12.855Z,77.80
2019-02-22T15:55:40.649Z,78.60
2019-02-22T15:58:09.802Z,78.20
2019-02-22T16:00:37.540Z,78.00
2019-02-22T16:03:05.177Z,78.10
2019-02-22T16:05:35.204Z,78.10
2019-02-22T16:08:02.717Z,78.20
2019-02-22T16:10:30.504Z,78.20
2019-02-22T16:12:58.243Z,77.60
2019-02-22T16:15:26.849Z,77.30
2019-02-22T16:17:54.414Z,77.20
2019-02-22T16:20:22.040Z,77.10
2019-02-22T16:22:51.381Z,76.30
2019-02-22T16:25:21.354Z,76.50
2019-02-22T16:27:49.898Z,76.20
2019-02-22T16:30:19.173Z,75.90
2019-02-22T16:32:47.104Z,75.20
2019-02-22T16:35:15.905Z,75.00
2019-02-22T16:37:43.696Z,75.40
2019-02-22T16:40:11.411Z,75.50
2019-02-22T16:42:39.121Z,75.20
2019-02-22T16:45:07.397Z,75.40
2019-02-22T16:47:40.013Z,75.70
2019-02-22T16:52:51.094Z,75.90
2019-02-22T16:55:18.832Z,76.50
2019-02-22T16:57:46.576Z,76.30
2019-02-22T17:00:15.476Z,76.30
2019-02-22T17:02:43.390Z,76.20
2019-02-22T17:05:12.597Z,75.90
2019-02-22T17:07:40.422Z,75.40
2019-02-22T17:10:09.163Z,75.30
2019-02-22T17:12:38.187Z,75.10
2019-02-22T17:15:08.092Z,74.90
2019-02-22T17:17:36.370Z,74.40
2019-02-22T17:20:04.404Z,73.80
2019-02-22T17:22:32.280Z,73.80
2019-02-22T17:24:59.992Z,74.30
2019-02-22T17:27:29.906Z,74.30
2019-02-22T17:29:57.298Z,73.90
2019-02-22T17:32:24.940Z,74.00
2019-02-22T17:34:52.515Z,73.90
2019-02-22T17:37:20.282Z,73.50
2019-02-22T17:39:49.422Z,73.10
2019-02-22T17:42:17.071Z,72.80
2019-02-22T17:44:44.726Z,73.30
2019-02-22T17:47:12.636Z,72.40
2019-02-22T17:49:41.339Z,72.20
2019-02-22T17:52:08.987Z,72.00
2019-02-22T17:54:36.578Z,73.00
2019-02-22T17:57:04.281Z,72.00
2019-02-22T17:59:31.896Z,72.10
2019-02-22T18:02:01.240Z,72.10
2019-02-22T18:04:29.198Z,71.80
2019-02-22T18:06:56.932Z,71.70
2019-02-22T18:09:26.878Z,71.70
2019-02-22T18:11:54.538Z,71.50
2019-02-22T18:14:22.199Z,71.90
2019-02-22T18:16:50.853Z,72.70
2019-02-22T18:19:19.691Z,73.00
2019-02-22T18:21:49.061Z,73.10
2019-02-22T18:24:16.542Z,73.50
2019-02-22T18:26:44.390Z,73.40
2019-02-22T18:29:12.003Z,73.40
2019-02-22T18:31:42.439Z,73.10
2019-02-22T18:34:10.029Z,73.40
2019-02-22T18:36:37.423Z,73.30
2019-02-22T18:39:06.230Z,72.90
2019-02-22T18:41:35.361Z,72.80
2019-02-22T18:44:03.058Z,72.70
2019-02-22T18:46:31.770Z,72.60
2019-02-22T18:48:59.551Z,73.30
2019-02-22T18:51:26.872Z,72.50
2019-02-22T18:53:54.365Z,72.50
2019-02-22T18:56:21.859Z,72.40
2019-02-22T18:58:50.517Z,72.40
2019-02-22T19:01:18.079Z,72.40
2019-02-22T19:03:45.532Z,72.10
2019-02-22T19:06:15.893Z,71.70
2019-02-22T19:08:43.369Z,71.10
2019-02-22T19:11:10.772Z,71.10
2019-02-22T19:13:39.559Z,71.30
2019-02-22T19:16:09.739Z,71.10
2019-02-22T19:18:37.569Z,70.80
2019-02-22T19:21:05.323Z,70.50
2019-02-22T19:23:32.879Z,70.50
2019-02-22T19:26:00.289Z,70.10
2019-02-22T19:28:28.952Z,70.40
2019-02-22T19:30:58.912Z,70.20
2019-02-22T19:33:26.498Z,70.30
2019-02-22T19:35:54.205Z,70.50
2019-02-22T19:38:21.613Z,70.60
2019-02-22T19:40:49.078Z,70.20
2019-02-22T19:43:16.539Z,70.20
2019-02-22T19:45:45.289Z,70.80
2019-02-22T19:48:12.899Z,70.40
2019-02-22T19:50:41.604Z,70.20
2019-02-22T19:53:09.365Z,70.40
2019-02-22T19:55:37.648Z,70.00
2019-02-22T19:58:05.231Z,71.20
2019-02-22T20:00:32.923Z,70.80
2019-02-22T20:03:05.170Z,70.50
2019-02-22T20:05:32.880Z,71.00
2019-02-22T20:08:00.485Z,71.20
2019-02-22T20:10:27.930Z,71.10
2019-02-22T20:12:55.380Z,71.00
2019-02-22T20:15:24.536Z,70.60
2019-02-22T20:17:54.872Z,70.50
2019-02-22T20:20:22.136Z,70.50
2019-02-22T20:22:49.851Z,70.50
2019-02-22T20:25:21.442Z,70.10
2019-02-22T20:27:49.088Z,70.50
2019-02-22T20:30:19.614Z,70.70
2019-02-22T20:32:47.609Z,70.70
2019-02-22T20:35:18.798Z,70.40
2019-02-22T20:37:52.759Z,70.30
2019-02-22T20:40:16.033Z,71.10
2019-02-22T20:42:43.650Z,71.80
2019-02-22T20:45:11.131Z,71.50
2019-02-22T20:47:38.551Z,72.20
2019-02-22T20:50:08.343Z,72.90
2019-02-22T20:52:35.809Z,73.50
2019-02-22T20:55:03.461Z,73.40
2019-02-22T20:57:30.911Z,74.10
2019-02-22T20:59:58.272Z,74.50
2019-02-22T21:02:25.765Z,74.70
2019-02-22T21:04:54.415Z,74.60
2019-02-22T21:07:21.872Z,75.60
2019-02-22T21:09:49.342Z,74.70
2019-02-22T21:12:16.750Z,74.40
2019-02-22T21:14:44.149Z,74.40
2019-02-22T21:17:11.508Z,74.60
2019-02-22T21:19:39.000Z,74.60
2019-02-22T21:22:06.458Z,74.90
2019-02-22T21:24:35.066Z,75.20
2019-02-22T21:27:03.505Z,74.80
2019-02-22T21:29:30.928Z,74.20
2019-02-22T21:31:58.362Z,73.80
2019-02-22T21:34:25.728Z,73.30
2019-02-22T21:36:53.179Z,73.50
2019-02-22T21:39:20.585Z,73.60
2019-02-22T21:41:48.031Z,73.20
2019-02-22T21:44:15.327Z,73.10
2019-02-22T21:46:42.843Z,73.00
2019-02-22T21:49:10.279Z,72.30
2019-02-22T21:51:40.675Z,72.00
2019-02-22T21:54:08.061Z,71.80
2019-02-22T21:56:35.514Z,71.40
2019-02-22T21:59:03.216Z,71.60
2019-02-22T22:01:30.627Z,71.50
2019-02-22T22:03:58.096Z,71.60
2019-02-22T22:06:25.485Z,71.50
2019-02-22T22:08:55.440Z,71.40
2019-02-22T22:11:22.368Z,71.10
2019-02-22T22:13:49.901Z,71.60
2019-02-22T22:16:19.213Z,71.80
2019-02-22T22:18:50.223Z,71.60
2019-02-22T22:21:17.684Z,71.90
2019-02-22T22:23:45.239Z,71.90
2019-02-22T22:26:12.671Z,72.10
2019-02-22T22:28:40.140Z,72.20
2019-02-22T22:31:07.562Z,72.10
2019-02-22T22:33:35.019Z,72.40
2019-02-22T22:36:02.478Z,72.20
2019-02-22T22:38:29.968Z,72.50
2019-02-22T22:40:57.266Z,72.60
2019-02-22T22:43:24.589Z,72.90
2019-02-22T22:45:51.919Z,72.90
2019-02-22T22:48:19.263Z,72.80
2019-02-22T22:50:47.151Z,72.90
2019-02-22T22:53:14.538Z,73.00
2019-02-22T22:55:41.932Z,72.90
2019-02-22T22:58:09.231Z,73.90
2019-02-22T23:00:59.333Z,73.20
2019-02-22T23:03:27.157Z,73.20
2019-02-22T23:05:55.794Z,73.00
2019-02-22T23:08:24.334Z,72.90
2019-02-22T23:10:51.709Z,72.30
2019-02-22T23:13:21.078Z,72.10
2019-02-22T23:15:48.908Z,69.70
2019-02-22T23:18:16.289Z,68.40
2019-02-22T23:20:43.672Z,68.30
2019-02-22T23:23:11.092Z,68.90
2019-02-22T23:25:38.504Z,68.30
2019-02-22T23:28:06.056Z,68.70
2019-02-22T23:30:33.527Z,69.00
2019-02-22T23:33:00.979Z,69.40
2019-02-22T23:35:28.291Z,70.00
2019-02-22T23:37:55.890Z,70.80
2019-02-22T23:40:24.381Z,71.40
2019-02-22T23:42:51.883Z,71.60
2019-02-22T23:45:19.364Z,71.00
2019-02-22T23:47:46.740Z,70.90
2019-02-22T23:50:15.174Z,70.90
2019-02-22T23:52:42.650Z,70.60
2019-02-22T23:55:11.891Z,71.60
2019-02-22T23:57:39.209Z,70.00
